sensor_id;sensor_type;location;lat;lon;timestamp;temperature;humidity
5210;DHT22;2624;48.048;11.706;2023-07-29T00:02:42;17.70;99.90
5210;DHT22;2624;48.048;11.706;2023-07-29T00:07:44;17.30;99.90
5210;DHT22;2624;48.048;11.706;2023-07-29T00:12:47;17.40;99.90
5210;DHT22;2624;48.048;11.706;2023-07-29T00:17:49;17.20;99.90
5210;DHT22;2624;48.048;11.706;2023-07-29T00:22:51;17.30;99.90
5210;DHT22;2624;48.048;11.706;2023-07-29T00:27:56;17.30;99.90
5210;DHT22;2624;48.048;11.706;2023-07-29T00:32:58;17.50;99.90
5210;DHT22;2624;48.048;11.706;2023-07-29T00:38:00;17.30;99.90
5210;DHT22;2624;48.048;11.706;2023-07-29T00:43:03;17.30;99.90
5210;DHT22;2624;48.048;11.706;2023-07-29T00:48:05;17.40;99.90
5210;DHT22;2624;48.048;11.706;2023-07-29T00:53:07;17.60;99.90
5210;DHT22;2624;48.048;11.706;2023-07-29T00:58:10;17.70;99.90
5210;DHT22;2624;48.048;11.706;2023-07-29T01:03:12;17.60;99.90
5210;DHT22;2624;48.048;11.706;2023-07-29T01:08:21;17.50;99.90
5210;DHT22;2624;48.048;11.706;2023-07-29T01:13:28;17.40;99.90
5210;DHT22;2624;48.048;11.706;2023-07-29T01:18:36;17.50;99.90
5210;DHT22;2624;48.048;11.706;2023-07-29T01:23:40;17.50;99.90
5210;DHT22;2624;48.048;11.706;2023-07-29T01:28:41;17.30;99.90
5210;DHT22;2624;48.048;11.706;2023-07-29T01:33:48;17.00;99.90
5210;DHT22;2624;48.048;11.706;2023-07-29T01:38:56;16.90;99.90
5210;DHT22;2624;48.048;11.706;2023-07-29T01:43:59;17.10;99.90
5210;DHT22;2624;48.048;11.706;2023-07-29T01:49:01;16.90;99.90
5210;DHT22;2624;48.048;11.706;2023-07-29T01:54:04;16.90;99.90
5210;DHT22;2624;48.048;11.706;2023-07-29T01:59:06;17.00;99.90
5210;DHT22;2624;48.048;11.706;2023-07-29T02:04:07;16.70;99.90
5210;DHT22;2624;48.048;11.706;2023-07-29T02:09:11;16.70;99.90
5210;DHT22;2624;48.048;11.706;2023-07-29T02:14:13;16.80;99.90
5210;DHT22;2624;48.048;11.706;2023-07-29T02:19:15;16.70;99.90
5210;DHT22;2624;48.048;11.706;2023-07-29T02:24:18;16.70;99.90
5210;DHT22;2624;48.048;11.706;2023-07-29T02:29:20;16.70;99.90
5210;DHT22;2624;48.048;11.706;2023-07-29T02:34:23;16.90;99.90
5210;DHT22;2624;48.048;11.706;2023-07-29T02:39:26;16.80;99.90
5210;DHT22;2624;48.048;11.706;2023-07-29T02:44:29;16.60;99.90
5210;DHT22;2624;48.048;11.706;2023-07-29T02:49:31;16.40;99.90
5210;DHT22;2624;48.048;11.706;2023-07-29T02:54:35;16.60;99.90
5210;DHT22;2624;48.048;11.706;2023-07-29T02:59:36;16.80;99.90
5210;DHT22;2624;48.048;11.706;2023-07-29T03:04:38;16.60;99.90
5210;DHT22;2624;48.048;11.706;2023-07-29T03:09:41;16.40;99.90
5210;DHT22;2624;48.048;11.706;2023-07-29T03:14:47;16.50;99.90
5210;DHT22;2624;48.048;11.706;2023-07-29T03:19:49;16.80;99.90
5210;DHT22;2624;48.048;11.706;2023-07-29T03:24:52;17.00;99.90
5210;DHT22;2624;48.048;11.706;2023-07-29T03:29:54;16.80;99.90
5210;DHT22;2624;48.048;11.706;2023-07-29T03:34:56;16.40;99.90
5210;DHT22;2624;48.048;11.706;2023-07-29T03:39:59;16.60;99.90
5210;DHT22;2624;48.048;11.706;2023-07-29T03:45:01;16.70;99.90
5210;DHT22;2624;48.048;11.706;2023-07-29T03:50:03;16.60;99.90
5210;DHT22;2624;48.048;11.706;2023-07-29T03:55:07;16.50;99.90
5210;DHT22;2624;48.048;11.706;2023-07-29T04:00:10;16.50;99.90
5210;DHT22;2624;48.048;11.706;2023-07-29T04:05:12;16.50;99.90
5210;DHT22;2624;48.048;11.706;2023-07-29T04:10:15;16.40;99.90
5210;DHT22;2624;48.048;11.706;2023-07-29T04:15:17;16.40;99.90
5210;DHT22;2624;48.048;11.706;2023-07-29T04:20:18;16.40;99.90
5210;DHT22;2624;48.048;11.706;2023-07-29T04:25:22;16.50;99.90
5210;DHT22;2624;48.048;11.706;2023-07-29T04:30:23;16.30;99.90
5210;DHT22;2624;48.048;11.706;2023-07-29T04:35:25;16.20;99.90
5210;DHT22;2624;48.048;11.706;2023-07-29T04:40:28;16.20;99.90
5210;DHT22;2624;48.048;11.706;2023-07-29T04:45:30;16.20;99.90
5210;DHT22;2624;48.048;11.706;2023-07-29T04:50:32;16.30;99.90
5210;DHT22;2624;48.048;11.706;2023-07-29T04:55:35;16.40;99.90
5210;DHT22;2624;48.048;11.706;2023-07-29T05:00:37;16.40;99.90
5210;DHT22;2624;48.048;11.706;2023-07-29T05:05:39;16.30;99.90
5210;DHT22;2624;48.048;11.706;2023-07-29T05:10:42;16.30;99.90
5210;DHT22;2624;48.048;11.706;2023-07-29T05:15:43;16.60;99.90
5210;DHT22;2624;48.048;11.706;2023-07-29T05:20:46;16.70;99.90
5210;DHT22;2624;48.048;11.706;2023-07-29T05:25:50;16.70;99.90
5210;DHT22;2624;48.048;11.706;2023-07-29T05:30:52;16.70;99.90
5210;DHT22;2624;48.048;11.706;2023-07-29T05:35:54;16.70;99.90
5210;DHT22;2624;48.048;11.706;2023-07-29T05:40:57;16.70;99.90
5210;DHT22;2624;48.048;11.706;2023-07-29T05:45:59;16.80;99.90
5210;DHT22;2624;48.048;11.706;2023-07-29T05:51:01;16.80;99.90
5210;DHT22;2624;48.048;11.706;2023-07-29T05:56:04;16.90;99.90
5210;DHT22;2624;48.048;11.706;2023-07-29T06:01:06;16.90;99.90
5210;DHT22;2624;48.048;11.706;2023-07-29T06:06:08;16.90;99.90
5210;DHT22;2624;48.048;11.706;2023-07-29T06:11:11;16.90;99.90
5210;DHT22;2624;48.048;11.706;2023-07-29T06:16:13;16.90;99.90
5210;DHT22;2624;48.048;11.706;2023-07-29T06:21:15;17.00;99.90
5210;DHT22;2624;48.048;11.706;2023-07-29T06:26:19;17.00;99.90
5210;DHT22;2624;48.048;11.706;2023-07-29T06:31:20;16.80;99.90
5210;DHT22;2624;48.048;11.706;2023-07-29T06:36:22;16.70;99.90
5210;DHT22;2624;48.048;11.706;2023-07-29T06:41:25;16.70;99.90
5210;DHT22;2624;48.048;11.706;2023-07-29T06:46:27;16.80;99.90
5210;DHT22;2624;48.048;11.706;2023-07-29T06:51:29;16.80;99.90
5210;DHT22;2624;48.048;11.706;2023-07-29T06:56:34;16.80;99.90
5210;DHT22;2624;48.048;11.706;2023-07-29T07:01:36;16.80;99.90
5210;DHT22;2624;48.048;11.706;2023-07-29T07:06:37;16.70;99.90
5210;DHT22;2624;48.048;11.706;2023-07-29T07:11:41;16.80;99.90
5210;DHT22;2624;48.048;11.706;2023-07-29T07:16:42;16.80;99.90
5210;DHT22;2624;48.048;11.706;2023-07-29T07:21:44;16.80;99.90
5210;DHT22;2624;48.048;11.706;2023-07-29T07:26:47;16.70;99.90
5210;DHT22;2624;48.048;11.706;2023-07-29T07:31:51;16.70;99.90
5210;DHT22;2624;48.048;11.706;2023-07-29T07:36:53;16.70;99.90
5210;DHT22;2624;48.048;11.706;2023-07-29T07:41:56;16.80;99.90
5210;DHT22;2624;48.048;11.706;2023-07-29T07:46:58;16.80;99.90
5210;DHT22;2624;48.048;11.706;2023-07-29T07:52:00;16.80;99.90
5210;DHT22;2624;48.048;11.706;2023-07-29T07:57:04;16.80;99.90
5210;DHT22;2624;48.048;11.706;2023-07-29T08:02:05;16.90;99.90
5210;DHT22;2624;48.048;11.706;2023-07-29T08:07:07;16.80;99.90
5210;DHT22;2624;48.048;11.706;2023-07-29T08:12:10;16.80;99.90
5210;DHT22;2624;48.048;11.706;2023-07-29T08:17:13;16.80;99.90
5210;DHT22;2624;48.048;11.706;2023-07-29T08:22:15;16.80;99.90
5210;DHT22;2624;48.048;11.706;2023-07-29T08:27:18;16.90;99.90
5210;DHT22;2624;48.048;11.706;2023-07-29T08:32:20;16.90;99.90
5210;DHT22;2624;48.048;11.706;2023-07-29T08:37:22;17.00;99.90
5210;DHT22;2624;48.048;11.706;2023-07-29T08:42:29;17.10;99.90
5210;DHT22;2624;48.048;11.706;2023-07-29T08:47:31;17.20;99.90
5210;DHT22;2624;48.048;11.706;2023-07-29T08:52:33;17.20;99.90
5210;DHT22;2624;48.048;11.706;2023-07-29T08:57:37;17.30;99.90
5210;DHT22;2624;48.048;11.706;2023-07-29T09:02:39;17.30;99.90
5210;DHT22;2624;48.048;11.706;2023-07-29T09:07:41;17.30;99.90
5210;DHT22;2624;48.048;11.706;2023-07-29T09:12:45;17.40;99.90
5210;DHT22;2624;48.048;11.706;2023-07-29T09:17:47;17.60;99.90
5210;DHT22;2624;48.048;11.706;2023-07-29T09:22:48;17.60;99.90
5210;DHT22;2624;48.048;11.706;2023-07-29T09:27:52;17.90;99.90
5210;DHT22;2624;48.048;11.706;2023-07-29T09:32:55;18.10;99.90
5210;DHT22;2624;48.048;11.706;2023-07-29T09:37:57;18.10;99.90
5210;DHT22;2624;48.048;11.706;2023-07-29T09:43:00;18.50;99.90
5210;DHT22;2624;48.048;11.706;2023-07-29T09:48:03;18.60;99.90
5210;DHT22;2624;48.048;11.706;2023-07-29T09:53:10;18.90;99.90
5210;DHT22;2624;48.048;11.706;2023-07-29T09:58:13;18.80;99.90
5210;DHT22;2624;48.048;11.706;2023-07-29T10:03:15;19.30;99.90
5210;DHT22;2624;48.048;11.706;2023-07-29T10:08:18;19.10;99.90
5210;DHT22;2624;48.048;11.706;2023-07-29T10:13:21;19.10;99.90
5210;DHT22;2624;48.048;11.706;2023-07-29T10:18:24;19.10;99.90
5210;DHT22;2624;48.048;11.706;2023-07-29T10:23:37;19.80;99.90
5210;DHT22;2624;48.048;11.706;2023-07-29T10:28:41;19.90;99.90
5210;DHT22;2624;48.048;11.706;2023-07-29T10:33:45;19.80;99.90
5210;DHT22;2624;48.048;11.706;2023-07-29T10:38:47;19.60;99.90
5210;DHT22;2624;48.048;11.706;2023-07-29T10:43:50;20.50;99.90
5210;DHT22;2624;48.048;11.706;2023-07-29T10:48:53;20.30;99.90
5210;DHT22;2624;48.048;11.706;2023-07-29T10:53:56;20.80;99.90
5210;DHT22;2624;48.048;11.706;2023-07-29T10:59:31;21.00;99.90
5210;DHT22;2624;48.048;11.706;2023-07-29T11:04:46;20.70;99.90
5210;DHT22;2624;48.048;11.706;2023-07-29T11:09:53;20.60;99.90
5210;DHT22;2624;48.048;11.706;2023-07-29T11:14:57;20.40;99.90
5210;DHT22;2624;48.048;11.706;2023-07-29T11:20:00;21.00;99.90
5210;DHT22;2624;48.048;11.706;2023-07-29T11:25:04;21.50;99.90
5210;DHT22;2624;48.048;11.706;2023-07-29T11:30:11;21.10;99.90
5210;DHT22;2624;48.048;11.706;2023-07-29T11:35:14;21.80;99.90
5210;DHT22;2624;48.048;11.706;2023-07-29T11:40:17;22.20;99.90
5210;DHT22;2624;48.048;11.706;2023-07-29T11:45:21;22.00;99.90
5210;DHT22;2624;48.048;11.706;2023-07-29T11:50:24;22.20;99.90
5210;DHT22;2624;48.048;11.706;2023-07-29T11:55:26;21.50;99.90
5210;DHT22;2624;48.048;11.706;2023-07-29T12:00:29;21.10;99.90
5210;DHT22;2624;48.048;11.706;2023-07-29T12:05:31;21.40;99.90
5210;DHT22;2624;48.048;11.706;2023-07-29T12:10:34;21.10;99.90
5210;DHT22;2624;48.048;11.706;2023-07-29T12:15:38;21.10;99.90
5210;DHT22;2624;48.048;11.706;2023-07-29T12:20:41;21.00;99.90
5210;DHT22;2624;48.048;11.706;2023-07-29T12:25:43;21.10;99.90
5210;DHT22;2624;48.048;11.706;2023-07-29T12:30:46;21.80;99.90
5210;DHT22;2624;48.048;11.706;2023-07-29T12:35:50;21.80;99.90
5210;DHT22;2624;48.048;11.706;2023-07-29T12:40:52;21.70;99.90
5210;DHT22;2624;48.048;11.706;2023-07-29T12:45:57;21.90;99.90
5210;DHT22;2624;48.048;11.706;2023-07-29T12:50:59;21.90;99.90
5210;DHT22;2624;48.048;11.706;2023-07-29T12:56:00;22.00;99.90
5210;DHT22;2624;48.048;11.706;2023-07-29T13:01:04;22.40;99.90
5210;DHT22;2624;48.048;11.706;2023-07-29T13:06:05;22.80;99.90
5210;DHT22;2624;48.048;11.706;2023-07-29T13:11:07;22.30;99.90
5210;DHT22;2624;48.048;11.706;2023-07-29T13:16:10;22.10;99.90
5210;DHT22;2624;48.048;11.706;2023-07-29T13:21:12;22.00;99.90
5210;DHT22;2624;48.048;11.706;2023-07-29T13:26:14;21.90;99.90
5210;DHT22;2624;48.048;11.706;2023-07-29T13:31:17;21.70;99.90
5210;DHT22;2624;48.048;11.706;2023-07-29T13:36:19;21.60;99.90
5210;DHT22;2624;48.048;11.706;2023-07-29T13:41:20;21.90;99.90
5210;DHT22;2624;48.048;11.706;2023-07-29T13:46:23;22.10;99.90
5210;DHT22;2624;48.048;11.706;2023-07-29T13:51:25;22.00;99.90
5210;DHT22;2624;48.048;11.706;2023-07-29T13:56:27;21.90;99.90
5210;DHT22;2624;48.048;11.706;2023-07-29T14:01:30;21.90;99.90
5210;DHT22;2624;48.048;11.706;2023-07-29T14:06:32;21.80;99.90
5210;DHT22;2624;48.048;11.706;2023-07-29T14:11:34;21.90;99.90
5210;DHT22;2624;48.048;11.706;2023-07-29T14:16:37;21.90;99.90
5210;DHT22;2624;48.048;11.706;2023-07-29T14:21:39;21.90;99.90
5210;DHT22;2624;48.048;11.706;2023-07-29T14:26:41;21.90;99.90
5210;DHT22;2624;48.048;11.706;2023-07-29T14:31:44;21.90;99.90
5210;DHT22;2624;48.048;11.706;2023-07-29T14:36:46;21.90;99.90
5210;DHT22;2624;48.048;11.706;2023-07-29T14:41:47;21.90;99.90
5210;DHT22;2624;48.048;11.706;2023-07-29T14:46:51;21.90;99.90
5210;DHT22;2624;48.048;11.706;2023-07-29T14:51:53;21.80;99.90
5210;DHT22;2624;48.048;11.706;2023-07-29T14:56:55;21.80;99.90
5210;DHT22;2624;48.048;11.706;2023-07-29T15:01:58;21.80;99.90
5210;DHT22;2624;48.048;11.706;2023-07-29T15:07:01;21.70;99.90
5210;DHT22;2624;48.048;11.706;2023-07-29T15:12:04;21.70;99.90
5210;DHT22;2624;48.048;11.706;2023-07-29T15:17:07;21.70;99.90
5210;DHT22;2624;48.048;11.706;2023-07-29T15:22:09;21.60;99.90
5210;DHT22;2624;48.048;11.706;2023-07-29T15:27:10;21.70;99.90
5210;DHT22;2624;48.048;11.706;2023-07-29T15:32:14;21.70;99.90
5210;DHT22;2624;48.048;11.706;2023-07-29T15:37:15;21.60;99.90
5210;DHT22;2624;48.048;11.706;2023-07-29T15:42:17;21.40;99.90
5210;DHT22;2624;48.048;11.706;2023-07-29T15:47:20;21.60;99.90
5210;DHT22;2624;48.048;11.706;2023-07-29T15:52:22;21.60;99.90
5210;DHT22;2624;48.048;11.706;2023-07-29T15:57:24;21.60;99.90
5210;DHT22;2624;48.048;11.706;2023-07-29T16:02:27;21.60;99.90
5210;DHT22;2624;48.048;11.706;2023-07-29T16:07:29;21.60;99.90
5210;DHT22;2624;48.048;11.706;2023-07-29T16:12:30;21.60;99.90
5210;DHT22;2624;48.048;11.706;2023-07-29T16:17:37;21.60;99.90
5210;DHT22;2624;48.048;11.706;2023-07-29T16:22:39;21.50;99.90
5210;DHT22;2624;48.048;11.706;2023-07-29T16:27:40;21.50;99.90
5210;DHT22;2624;48.048;11.706;2023-07-29T16:32:44;21.60;99.90
5210;DHT22;2624;48.048;11.706;2023-07-29T16:37:45;21.40;99.90
5210;DHT22;2624;48.048;11.706;2023-07-29T16:42:47;21.40;99.90
5210;DHT22;2624;48.048;11.706;2023-07-29T16:47:50;21.30;99.90
5210;DHT22;2624;48.048;11.706;2023-07-29T16:52:52;21.30;99.90
5210;DHT22;2624;48.048;11.706;2023-07-29T16:57:57;21.20;99.90
5210;DHT22;2624;48.048;11.706;2023-07-29T17:03:00;21.20;99.90
5210;DHT22;2624;48.048;11.706;2023-07-29T17:08:02;21.10;99.90
5210;DHT22;2624;48.048;11.706;2023-07-29T17:13:03;21.20;99.90
5210;DHT22;2624;48.048;11.706;2023-07-29T17:18:07;21.10;99.90
5210;DHT22;2624;48.048;11.706;2023-07-29T17:23:08;21.20;99.90
5210;DHT22;2624;48.048;11.706;2023-07-29T17:28:10;21.10;99.90
5210;DHT22;2624;48.048;11.706;2023-07-29T17:33:13;21.10;99.90
5210;DHT22;2624;48.048;11.706;2023-07-29T17:38:15;21.10;99.90
5210;DHT22;2624;48.048;11.706;2023-07-29T17:43:17;21.10;99.90
5210;DHT22;2624;48.048;11.706;2023-07-29T17:48:20;21.00;99.90
5210;DHT22;2624;48.048;11.706;2023-07-29T17:53:22;20.90;99.90
5210;DHT22;2624;48.048;11.706;2023-07-29T17:58:23;20.80;99.90
5210;DHT22;2624;48.048;11.706;2023-07-29T18:03:26;20.90;99.90
5210;DHT22;2624;48.048;11.706;2023-07-29T18:08:28;20.90;99.90
5210;DHT22;2624;48.048;11.706;2023-07-29T18:13:30;21.00;99.90
5210;DHT22;2624;48.048;11.706;2023-07-29T18:18:33;21.00;99.90
5210;DHT22;2624;48.048;11.706;2023-07-29T18:23:35;21.00;99.90
5210;DHT22;2624;48.048;11.706;2023-07-29T18:28:37;21.00;99.90
5210;DHT22;2624;48.048;11.706;2023-07-29T18:33:40;20.80;99.90
5210;DHT22;2624;48.048;11.706;2023-07-29T18:38:41;20.70;99.90
5210;DHT22;2624;48.048;11.706;2023-07-29T18:43:43;20.70;99.90
5210;DHT22;2624;48.048;11.706;2023-07-29T18:48:46;20.70;99.90
5210;DHT22;2624;48.048;11.706;2023-07-29T18:53:48;20.70;99.90
5210;DHT22;2624;48.048;11.706;2023-07-29T18:58:50;20.70;99.90
5210;DHT22;2624;48.048;11.706;2023-07-29T19:03:53;20.50;99.90
5210;DHT22;2624;48.048;11.706;2023-07-29T19:08:55;20.50;99.90
5210;DHT22;2624;48.048;11.706;2023-07-29T19:13:57;20.50;99.90
5210;DHT22;2624;48.048;11.706;2023-07-29T19:19:00;20.40;99.90
5210;DHT22;2624;48.048;11.706;2023-07-29T19:24:02;20.40;99.90
5210;DHT22;2624;48.048;11.706;2023-07-29T19:29:04;20.50;99.90
5210;DHT22;2624;48.048;11.706;2023-07-29T19:34:07;20.40;99.90
5210;DHT22;2624;48.048;11.706;2023-07-29T19:39:09;20.40;99.90
5210;DHT22;2624;48.048;11.706;2023-07-29T19:44:11;20.40;99.90
5210;DHT22;2624;48.048;11.706;2023-07-29T19:49:14;20.30;99.90
5210;DHT22;2624;48.048;11.706;2023-07-29T19:54:16;20.30;99.90
5210;DHT22;2624;48.048;11.706;2023-07-29T19:59:18;20.30;99.90
5210;DHT22;2624;48.048;11.706;2023-07-29T20:04:21;20.30;99.90
5210;DHT22;2624;48.048;11.706;2023-07-29T20:09:23;20.30;99.90
5210;DHT22;2624;48.048;11.706;2023-07-29T20:14:25;20.30;99.90
5210;DHT22;2624;48.048;11.706;2023-07-29T20:19:28;20.20;99.90
5210;DHT22;2624;48.048;11.706;2023-07-29T20:24:30;20.20;99.90
5210;DHT22;2624;48.048;11.706;2023-07-29T20:29:32;20.20;99.90
5210;DHT22;2624;48.048;11.706;2023-07-29T20:34:35;20.20;99.90
5210;DHT22;2624;48.048;11.706;2023-07-29T20:39:37;20.10;99.90
5210;DHT22;2624;48.048;11.706;2023-07-29T20:44:38;20.10;99.90
5210;DHT22;2624;48.048;11.706;2023-07-29T20:49:44;20.00;99.90
5210;DHT22;2624;48.048;11.706;2023-07-29T20:54:46;20.10;99.90
5210;DHT22;2624;48.048;11.706;2023-07-29T20:59:48;20.10;99.90
5210;DHT22;2624;48.048;11.706;2023-07-29T21:04:51;20.00;99.90
5210;DHT22;2624;48.048;11.706;2023-07-29T21:09:52;20.00;99.90
5210;DHT22;2624;48.048;11.706;2023-07-29T21:14:54;20.00;99.90
5210;DHT22;2624;48.048;11.706;2023-07-29T21:19:57;20.00;99.90
5210;DHT22;2624;48.048;11.706;2023-07-29T21:25:00;20.00;99.90
5210;DHT22;2624;48.048;11.706;2023-07-29T21:30:03;20.00;99.90
5210;DHT22;2624;48.048;11.706;2023-07-29T21:35:06;20.00;99.90
5210;DHT22;2624;48.048;11.706;2023-07-29T21:40:09;20.00;99.90
5210;DHT22;2624;48.048;11.706;2023-07-29T21:45:11;20.00;99.90
5210;DHT22;2624;48.048;11.706;2023-07-29T21:50:14;19.90;99.90
5210;DHT22;2624;48.048;11.706;2023-07-29T21:55:16;19.90;99.90
5210;DHT22;2624;48.048;11.706;2023-07-29T22:00:18;19.90;99.90
5210;DHT22;2624;48.048;11.706;2023-07-29T22:05:22;19.90;99.90
5210;DHT22;2624;48.048;11.706;2023-07-29T22:10:23;19.80;99.90
5210;DHT22;2624;48.048;11.706;2023-07-29T22:15:25;19.90;99.90
5210;DHT22;2624;48.048;11.706;2023-07-29T22:20:28;19.80;99.90
5210;DHT22;2624;48.048;11.706;2023-07-29T22:25:30;19.80;99.90
5210;DHT22;2624;48.048;11.706;2023-07-29T22:30:35;19.80;99.90
5210;DHT22;2624;48.048;11.706;2023-07-29T22:35:39;19.70;99.90
5210;DHT22;2624;48.048;11.706;2023-07-29T22:40:40;19.70;99.90
5210;DHT22;2624;48.048;11.706;2023-07-29T22:45:42;19.70;99.90
5210;DHT22;2624;48.048;11.706;2023-07-29T22:50:51;19.60;99.90
5210;DHT22;2624;48.048;11.706;2023-07-29T22:55:53;19.60;99.90
5210;DHT22;2624;48.048;11.706;2023-07-29T23:00:56;19.50;99.90
5210;DHT22;2624;48.048;11.706;2023-07-29T23:05:59;19.50;99.90
5210;DHT22;2624;48.048;11.706;2023-07-29T23:11:02;19.50;99.90
5210;DHT22;2624;48.048;11.706;2023-07-29T23:16:04;19.40;99.90
5210;DHT22;2624;48.048;11.706;2023-07-29T23:21:07;19.30;99.90
5210;DHT22;2624;48.048;11.706;2023-07-29T23:26:09;19.40;99.90
5210;DHT22;2624;48.048;11.706;2023-07-29T23:31:11;19.30;99.90
5210;DHT22;2624;48.048;11.706;2023-07-29T23:36:14;19.40;99.90
5210;DHT22;2624;48.048;11.706;2023-07-29T23:41:16;19.50;99.90
5210;DHT22;2624;48.048;11.706;2023-07-29T23:46:18;19.50;99.90
5210;DHT22;2624;48.048;11.706;2023-07-29T23:51:21;19.50;99.90
5210;DHT22;2624;48.048;11.706;2023-07-29T23:56:22;19.40;99.90
